sensor_id;sensor_type;location;lat;lon;timestamp;P1;durP1;ratioP1;P2;durP2;ratioP2
40162;SDS011;25881;47.462;19.304;2022-11-15T00:01:57;30.27;;;20.90;;
40162;SDS011;25881;47.462;19.304;2022-11-15T00:04:23;30.07;;;20.83;;
40162;SDS011;25881;47.462;19.304;2022-11-15T00:06:48;32.07;;;21.23;;
40162;SDS011;25881;47.462;19.304;2022-11-15T00:09:13;31.70;;;21.60;;
40162;SDS011;25881;47.462;19.304;2022-11-15T00:11:39;38.35;;;24.33;;
40162;SDS011;25881;47.462;19.304;2022-11-15T00:14:04;33.23;;;23.97;;
40162;SDS011;25881;47.462;19.304;2022-11-15T00:16:30;36.47;;;22.20;;
40162;SDS011;25881;47.462;19.304;2022-11-15T00:18:55;37.13;;;23.60;;
40162;SDS011;25881;47.462;19.304;2022-11-15T00:21:22;33.75;;;22.15;;
40162;SDS011;25881;47.462;19.304;2022-11-15T00:23:47;40.73;;;25.70;;
40162;SDS011;25881;47.462;19.304;2022-11-15T00:26:13;39.13;;;25.53;;
40162;SDS011;25881;47.462;19.304;2022-11-15T00:28:38;38.00;;;25.33;;
40162;SDS011;25881;47.462;19.304;2022-11-15T00:31:04;41.90;;;26.63;;
40162;SDS011;25881;47.462;19.304;2022-11-15T00:33:30;38.05;;;25.83;;
40162;SDS011;25881;47.462;19.304;2022-11-15T00:35:59;38.70;;;24.45;;
40162;SDS011;25881;47.462;19.304;2022-11-15T00:38:25;40.83;;;25.70;;
40162;SDS011;25881;47.462;19.304;2022-11-15T00:40:50;47.10;;;28.57;;
40162;SDS011;25881;47.462;19.304;2022-11-15T00:43:15;44.77;;;28.40;;
40162;SDS011;25881;47.462;19.304;2022-11-15T00:45:40;40.43;;;26.77;;
40162;SDS011;25881;47.462;19.304;2022-11-15T00:48:05;39.13;;;25.30;;
40162;SDS011;25881;47.462;19.304;2022-11-15T00:50:31;39.10;;;26.57;;
40162;SDS011;25881;47.462;19.304;2022-11-15T00:52:56;42.93;;;28.83;;
40162;SDS011;25881;47.462;19.304;2022-11-15T00:55:21;36.57;;;24.83;;
40162;SDS011;25881;47.462;19.304;2022-11-15T00:57:46;37.43;;;24.90;;
40162;SDS011;25881;47.462;19.304;2022-11-15T01:00:12;38.97;;;26.37;;
40162;SDS011;25881;47.462;19.304;2022-11-15T01:02:37;41.80;;;26.60;;
40162;SDS011;25881;47.462;19.304;2022-11-15T01:05:02;40.80;;;27.03;;
40162;SDS011;25881;47.462;19.304;2022-11-15T01:07:27;41.17;;;26.85;;
40162;SDS011;25881;47.462;19.304;2022-11-15T01:09:53;41.50;;;27.83;;
40162;SDS011;25881;47.462;19.304;2022-11-15T01:12:18;37.80;;;26.00;;
40162;SDS011;25881;47.462;19.304;2022-11-15T01:14:43;38.43;;;25.63;;
40162;SDS011;25881;47.462;19.304;2022-11-15T01:17:08;43.23;;;27.93;;
40162;SDS011;25881;47.462;19.304;2022-11-15T01:19:33;36.87;;;25.17;;
40162;SDS011;25881;47.462;19.304;2022-11-15T01:21:59;38.47;;;25.57;;
40162;SDS011;25881;47.462;19.304;2022-11-15T01:24:24;45.88;;;28.90;;
40162;SDS011;25881;47.462;19.304;2022-11-15T01:26:49;40.03;;;26.57;;
40162;SDS011;25881;47.462;19.304;2022-11-15T01:29:14;37.40;;;24.90;;
40162;SDS011;25881;47.462;19.304;2022-11-15T01:31:39;34.53;;;23.13;;
40162;SDS011;25881;47.462;19.304;2022-11-15T01:34:05;29.77;;;20.27;;
40162;SDS011;25881;47.462;19.304;2022-11-15T01:36:30;27.63;;;19.80;;
40162;SDS011;25881;47.462;19.304;2022-11-15T01:38:58;29.93;;;20.37;;
40162;SDS011;25881;47.462;19.304;2022-11-15T01:41:25;33.63;;;20.00;;
40162;SDS011;25881;47.462;19.304;2022-11-15T01:43:54;30.05;;;20.35;;
40162;SDS011;25881;47.462;19.304;2022-11-15T01:46:35;30.88;;;20.60;;
40162;SDS011;25881;47.462;19.304;2022-11-15T01:49:02;29.52;;;20.35;;
40162;SDS011;25881;47.462;19.304;2022-11-15T01:51:30;32.47;;;20.67;;
40162;SDS011;25881;47.462;19.304;2022-11-15T01:53:57;28.48;;;19.55;;
40162;SDS011;25881;47.462;19.304;2022-11-15T01:56:25;29.15;;;20.00;;
40162;SDS011;25881;47.462;19.304;2022-11-15T01:58:52;29.42;;;19.70;;
40162;SDS011;25881;47.462;19.304;2022-11-15T02:01:20;28.40;;;19.95;;
40162;SDS011;25881;47.462;19.304;2022-11-15T02:03:50;31.60;;;20.23;;
40162;SDS011;25881;47.462;19.304;2022-11-15T02:06:16;31.15;;;20.60;;
40162;SDS011;25881;47.462;19.304;2022-11-15T02:08:42;26.83;;;18.75;;
40162;SDS011;25881;47.462;19.304;2022-11-15T02:11:07;31.35;;;20.70;;
40162;SDS011;25881;47.462;19.304;2022-11-15T02:13:33;29.30;;;20.17;;
40162;SDS011;25881;47.462;19.304;2022-11-15T02:16:16;29.73;;;20.85;;
40162;SDS011;25881;47.462;19.304;2022-11-15T02:18:52;33.90;;;21.10;;
40162;SDS011;25881;47.462;19.304;2022-11-15T02:21:21;27.67;;;20.40;;
40162;SDS011;25881;47.462;19.304;2022-11-15T02:24:09;32.22;;;22.02;;
40162;SDS011;25881;47.462;19.304;2022-11-15T02:26:52;32.75;;;21.20;;
40162;SDS011;25881;47.462;19.304;2022-11-15T02:34:52;37.40;;;22.35;;
40162;SDS011;25881;47.462;19.304;2022-11-15T02:37:36;31.42;;;21.23;;
40162;SDS011;25881;47.462;19.304;2022-11-15T02:40:11;32.25;;;21.23;;
40162;SDS011;25881;47.462;19.304;2022-11-15T02:42:49;36.05;;;23.55;;
40162;SDS011;25881;47.462;19.304;2022-11-15T02:45:35;35.03;;;23.00;;
40162;SDS011;25881;47.462;19.304;2022-11-15T02:50:28;35.35;;;23.02;;
40162;SDS011;25881;47.462;19.304;2022-11-15T02:52:54;36.13;;;25.10;;
40162;SDS011;25881;47.462;19.304;2022-11-15T02:57:52;38.13;;;24.40;;
40162;SDS011;25881;47.462;19.304;2022-11-15T03:00:21;38.95;;;26.92;;
40162;SDS011;25881;47.462;19.304;2022-11-15T03:08:04;37.38;;;25.42;;
40162;SDS011;25881;47.462;19.304;2022-11-15T03:16:03;41.07;;;26.10;;
40162;SDS011;25881;47.462;19.304;2022-11-15T03:18:32;38.53;;;24.88;;
40162;SDS011;25881;47.462;19.304;2022-11-15T03:23:23;35.63;;;24.08;;
40162;SDS011;25881;47.462;19.304;2022-11-15T03:25:50;36.60;;;23.65;;
40162;SDS011;25881;47.462;19.304;2022-11-15T03:28:20;36.85;;;24.60;;
40162;SDS011;25881;47.462;19.304;2022-11-15T03:30:47;38.00;;;25.30;;
40162;SDS011;25881;47.462;19.304;2022-11-15T03:33:13;39.53;;;25.15;;
40162;SDS011;25881;47.462;19.304;2022-11-15T03:35:39;40.13;;;26.25;;
40162;SDS011;25881;47.462;19.304;2022-11-15T03:38:19;37.33;;;25.90;;
40162;SDS011;25881;47.462;19.304;2022-11-15T03:40:47;36.97;;;24.83;;
40162;SDS011;25881;47.462;19.304;2022-11-15T03:45:46;40.22;;;26.40;;
40162;SDS011;25881;47.462;19.304;2022-11-15T03:48:15;47.85;;;28.13;;
40162;SDS011;25881;47.462;19.304;2022-11-15T03:50:42;42.10;;;28.20;;
40162;SDS011;25881;47.462;19.304;2022-11-15T03:53:08;40.47;;;27.23;;
40162;SDS011;25881;47.462;19.304;2022-11-15T03:55:33;48.90;;;29.40;;
40162;SDS011;25881;47.462;19.304;2022-11-15T03:57:59;43.90;;;28.60;;
40162;SDS011;25881;47.462;19.304;2022-11-15T04:00:25;50.10;;;31.38;;
40162;SDS011;25881;47.462;19.304;2022-11-15T04:02:50;48.50;;;31.73;;
40162;SDS011;25881;47.462;19.304;2022-11-15T04:05:15;48.93;;;31.07;;
40162;SDS011;25881;47.462;19.304;2022-11-15T04:07:40;51.70;;;31.93;;
40162;SDS011;25881;47.462;19.304;2022-11-15T04:10:06;49.93;;;31.50;;
40162;SDS011;25881;47.462;19.304;2022-11-15T04:12:32;53.33;;;34.15;;
40162;SDS011;25881;47.462;19.304;2022-11-15T04:17:32;52.92;;;30.95;;
40162;SDS011;25881;47.462;19.304;2022-11-15T04:19:57;59.70;;;34.78;;
40162;SDS011;25881;47.462;19.304;2022-11-15T04:22:41;50.33;;;31.75;;
40162;SDS011;25881;47.462;19.304;2022-11-15T04:25:25;53.20;;;32.92;;
40162;SDS011;25881;47.462;19.304;2022-11-15T04:27:50;55.73;;;34.70;;
40162;SDS011;25881;47.462;19.304;2022-11-15T04:30:15;60.50;;;38.13;;
40162;SDS011;25881;47.462;19.304;2022-11-15T04:32:40;60.57;;;37.13;;
40162;SDS011;25881;47.462;19.304;2022-11-15T04:35:06;59.77;;;37.47;;
40162;SDS011;25881;47.462;19.304;2022-11-15T04:37:31;60.05;;;35.90;;
40162;SDS011;25881;47.462;19.304;2022-11-15T04:39:56;56.73;;;36.93;;
40162;SDS011;25881;47.462;19.304;2022-11-15T04:42:21;56.57;;;36.27;;
40162;SDS011;25881;47.462;19.304;2022-11-15T04:44:47;64.47;;;41.77;;
40162;SDS011;25881;47.462;19.304;2022-11-15T04:47:12;59.93;;;39.13;;
40162;SDS011;25881;47.462;19.304;2022-11-15T04:49:37;61.67;;;38.97;;
40162;SDS011;25881;47.462;19.304;2022-11-15T04:52:02;56.27;;;35.53;;
40162;SDS011;25881;47.462;19.304;2022-11-15T04:54:27;67.70;;;41.00;;
40162;SDS011;25881;47.462;19.304;2022-11-15T04:56:53;53.23;;;35.00;;
40162;SDS011;25881;47.462;19.304;2022-11-15T04:59:18;58.53;;;35.83;;
40162;SDS011;25881;47.462;19.304;2022-11-15T05:01:43;58.07;;;35.83;;
40162;SDS011;25881;47.462;19.304;2022-11-15T05:04:08;58.90;;;37.63;;
40162;SDS011;25881;47.462;19.304;2022-11-15T05:06:46;54.40;;;33.85;;
40162;SDS011;25881;47.462;19.304;2022-11-15T05:09:11;61.50;;;37.28;;
40162;SDS011;25881;47.462;19.304;2022-11-15T05:11:38;62.33;;;38.90;;
40162;SDS011;25881;47.462;19.304;2022-11-15T05:14:03;55.72;;;37.55;;
40162;SDS011;25881;47.462;19.304;2022-11-15T05:16:28;61.53;;;38.63;;
40162;SDS011;25881;47.462;19.304;2022-11-15T05:18:54;55.20;;;36.40;;
40162;SDS011;25881;47.462;19.304;2022-11-15T05:21:19;56.58;;;36.90;;
40162;SDS011;25881;47.462;19.304;2022-11-15T05:23:44;60.47;;;39.17;;
40162;SDS011;25881;47.462;19.304;2022-11-15T05:26:10;56.90;;;37.22;;
40162;SDS011;25881;47.462;19.304;2022-11-15T05:28:36;60.72;;;38.78;;
40162;SDS011;25881;47.462;19.304;2022-11-15T05:31:02;56.25;;;36.47;;
40162;SDS011;25881;47.462;19.304;2022-11-15T05:33:27;65.72;;;38.28;;
40162;SDS011;25881;47.462;19.304;2022-11-15T05:35:57;58.60;;;36.20;;
40162;SDS011;25881;47.462;19.304;2022-11-15T05:38:25;55.08;;;37.00;;
40162;SDS011;25881;47.462;19.304;2022-11-15T05:40:50;58.85;;;36.80;;
40162;SDS011;25881;47.462;19.304;2022-11-15T05:43:15;58.47;;;38.23;;
40162;SDS011;25881;47.462;19.304;2022-11-15T05:45:40;63.35;;;38.95;;
40162;SDS011;25881;47.462;19.304;2022-11-15T05:48:06;67.70;;;41.77;;
40162;SDS011;25881;47.462;19.304;2022-11-15T05:50:32;59.38;;;38.17;;
40162;SDS011;25881;47.462;19.304;2022-11-15T05:52:58;73.35;;;42.22;;
40162;SDS011;25881;47.462;19.304;2022-11-15T05:55:23;66.90;;;40.55;;
40162;SDS011;25881;47.462;19.304;2022-11-15T05:57:48;61.13;;;39.23;;
40162;SDS011;25881;47.462;19.304;2022-11-15T06:00:14;63.87;;;38.47;;
40162;SDS011;25881;47.462;19.304;2022-11-15T06:02:39;63.08;;;38.67;;
40162;SDS011;25881;47.462;19.304;2022-11-15T06:05:04;60.23;;;36.57;;
40162;SDS011;25881;47.462;19.304;2022-11-15T06:07:30;64.50;;;38.95;;
40162;SDS011;25881;47.462;19.304;2022-11-15T06:09:55;68.45;;;42.30;;
40162;SDS011;25881;47.462;19.304;2022-11-15T06:12:20;57.47;;;35.87;;
40162;SDS011;25881;47.462;19.304;2022-11-15T06:14:45;62.73;;;38.40;;
40162;SDS011;25881;47.462;19.304;2022-11-15T06:17:11;58.17;;;37.20;;
40162;SDS011;25881;47.462;19.304;2022-11-15T06:19:36;55.57;;;35.73;;
40162;SDS011;25881;47.462;19.304;2022-11-15T06:22:01;56.73;;;36.07;;
40162;SDS011;25881;47.462;19.304;2022-11-15T06:24:26;59.95;;;37.55;;
40162;SDS011;25881;47.462;19.304;2022-11-15T06:26:52;53.27;;;33.60;;
40162;SDS011;25881;47.462;19.304;2022-11-15T06:29:17;64.70;;;42.83;;
40162;SDS011;25881;47.462;19.304;2022-11-15T06:31:42;63.83;;;39.80;;
40162;SDS011;25881;47.462;19.304;2022-11-15T06:34:07;62.63;;;42.17;;
40162;SDS011;25881;47.462;19.304;2022-11-15T06:36:36;56.73;;;37.73;;
40162;SDS011;25881;47.462;19.304;2022-11-15T06:39:02;61.25;;;38.55;;
40162;SDS011;25881;47.462;19.304;2022-11-15T06:41:27;62.63;;;39.53;;
40162;SDS011;25881;47.462;19.304;2022-11-15T06:43:53;62.20;;;39.70;;
40162;SDS011;25881;47.462;19.304;2022-11-15T06:46:18;67.87;;;40.93;;
40162;SDS011;25881;47.462;19.304;2022-11-15T06:48:43;61.57;;;38.83;;
40162;SDS011;25881;47.462;19.304;2022-11-15T06:51:08;72.90;;;43.00;;
40162;SDS011;25881;47.462;19.304;2022-11-15T06:53:34;73.53;;;44.57;;
40162;SDS011;25881;47.462;19.304;2022-11-15T06:55:59;69.82;;;42.40;;
40162;SDS011;25881;47.462;19.304;2022-11-15T06:58:25;72.63;;;43.95;;
40162;SDS011;25881;47.462;19.304;2022-11-15T07:00:50;72.05;;;40.95;;
40162;SDS011;25881;47.462;19.304;2022-11-15T07:03:16;65.37;;;39.40;;
40162;SDS011;25881;47.462;19.304;2022-11-15T07:05:41;68.13;;;40.57;;
40162;SDS011;25881;47.462;19.304;2022-11-15T07:08:06;76.10;;;43.80;;
40162;SDS011;25881;47.462;19.304;2022-11-15T07:10:31;71.73;;;42.60;;
40162;SDS011;25881;47.462;19.304;2022-11-15T07:12:56;70.30;;;43.00;;
40162;SDS011;25881;47.462;19.304;2022-11-15T07:15:23;63.57;;;40.10;;
40162;SDS011;25881;47.462;19.304;2022-11-15T07:17:48;63.80;;;40.35;;
40162;SDS011;25881;47.462;19.304;2022-11-15T07:20:14;63.00;;;39.97;;
40162;SDS011;25881;47.462;19.304;2022-11-15T07:22:39;65.68;;;40.88;;
40162;SDS011;25881;47.462;19.304;2022-11-15T07:25:05;74.65;;;44.15;;
40162;SDS011;25881;47.462;19.304;2022-11-15T07:27:30;67.15;;;41.90;;
40162;SDS011;25881;47.462;19.304;2022-11-15T07:29:55;75.57;;;41.67;;
40162;SDS011;25881;47.462;19.304;2022-11-15T07:32:20;66.03;;;40.43;;
40162;SDS011;25881;47.462;19.304;2022-11-15T07:34:46;70.47;;;40.40;;
40162;SDS011;25881;47.462;19.304;2022-11-15T07:37:11;59.57;;;39.03;;
40162;SDS011;25881;47.462;19.304;2022-11-15T07:39:36;56.38;;;37.35;;
40162;SDS011;25881;47.462;19.304;2022-11-15T07:42:02;64.40;;;39.50;;
40162;SDS011;25881;47.462;19.304;2022-11-15T07:44:45;66.20;;;41.28;;
40162;SDS011;25881;47.462;19.304;2022-11-15T07:47:10;70.83;;;40.23;;
40162;SDS011;25881;47.462;19.304;2022-11-15T07:49:36;71.60;;;38.37;;
40162;SDS011;25881;47.462;19.304;2022-11-15T07:52:01;62.00;;;39.37;;
40162;SDS011;25881;47.462;19.304;2022-11-15T07:54:26;63.53;;;38.97;;
40162;SDS011;25881;47.462;19.304;2022-11-15T07:56:51;61.50;;;37.17;;
40162;SDS011;25881;47.462;19.304;2022-11-15T07:59:19;60.58;;;38.15;;
40162;SDS011;25881;47.462;19.304;2022-11-15T08:01:45;52.87;;;34.73;;
40162;SDS011;25881;47.462;19.304;2022-11-15T08:04:10;57.60;;;36.17;;
40162;SDS011;25881;47.462;19.304;2022-11-15T08:06:36;57.15;;;35.75;;
40162;SDS011;25881;47.462;19.304;2022-11-15T08:09:01;54.93;;;36.07;;
40162;SDS011;25881;47.462;19.304;2022-11-15T08:11:26;53.90;;;35.80;;
40162;SDS011;25881;47.462;19.304;2022-11-15T08:13:51;56.83;;;38.17;;
40162;SDS011;25881;47.462;19.304;2022-11-15T08:16:16;62.23;;;38.33;;
40162;SDS011;25881;47.462;19.304;2022-11-15T08:18:42;57.33;;;36.83;;
40162;SDS011;25881;47.462;19.304;2022-11-15T08:21:08;59.70;;;38.97;;
40162;SDS011;25881;47.462;19.304;2022-11-15T08:23:34;59.38;;;39.25;;
40162;SDS011;25881;47.462;19.304;2022-11-15T08:26:00;58.17;;;38.30;;
40162;SDS011;25881;47.462;19.304;2022-11-15T08:28:25;59.28;;;38.53;;
40162;SDS011;25881;47.462;19.304;2022-11-15T08:30:51;57.77;;;37.40;;
40162;SDS011;25881;47.462;19.304;2022-11-15T08:33:16;67.77;;;46.60;;
40162;SDS011;25881;47.462;19.304;2022-11-15T08:35:41;65.33;;;44.63;;
40162;SDS011;25881;47.462;19.304;2022-11-15T08:38:07;67.30;;;43.47;;
40162;SDS011;25881;47.462;19.304;2022-11-15T08:40:32;55.90;;;37.17;;
40162;SDS011;25881;47.462;19.304;2022-11-15T08:42:57;59.87;;;37.43;;
40162;SDS011;25881;47.462;19.304;2022-11-15T08:45:23;62.05;;;38.63;;
40162;SDS011;25881;47.462;19.304;2022-11-15T08:47:49;58.75;;;39.22;;
40162;SDS011;25881;47.462;19.304;2022-11-15T08:50:14;57.83;;;37.17;;
40162;SDS011;25881;47.462;19.304;2022-11-15T08:52:39;61.70;;;38.65;;
40162;SDS011;25881;47.462;19.304;2022-11-15T08:55:05;66.00;;;39.80;;
40162;SDS011;25881;47.462;19.304;2022-11-15T08:57:30;63.80;;;42.42;;
40162;SDS011;25881;47.462;19.304;2022-11-15T08:59:55;67.65;;;44.58;;
40162;SDS011;25881;47.462;19.304;2022-11-15T09:02:21;72.70;;;40.40;;
40162;SDS011;25881;47.462;19.304;2022-11-15T09:04:46;69.13;;;40.97;;
40162;SDS011;25881;47.462;19.304;2022-11-15T09:07:11;61.13;;;38.53;;
40162;SDS011;25881;47.462;19.304;2022-11-15T09:09:37;62.63;;;39.58;;
40162;SDS011;25881;47.462;19.304;2022-11-15T09:12:02;72.47;;;42.47;;
40162;SDS011;25881;47.462;19.304;2022-11-15T09:14:27;65.55;;;42.15;;
40162;SDS011;25881;47.462;19.304;2022-11-15T09:16:52;64.47;;;40.80;;
40162;SDS011;25881;47.462;19.304;2022-11-15T09:19:18;73.13;;;47.33;;
40162;SDS011;25881;47.462;19.304;2022-11-15T09:21:43;68.20;;;43.30;;
40162;SDS011;25881;47.462;19.304;2022-11-15T09:24:08;71.70;;;42.60;;
40162;SDS011;25881;47.462;19.304;2022-11-15T09:26:33;73.17;;;43.10;;
40162;SDS011;25881;47.462;19.304;2022-11-15T09:28:58;64.73;;;40.70;;
40162;SDS011;25881;47.462;19.304;2022-11-15T09:31:24;56.20;;;36.57;;
40162;SDS011;25881;47.462;19.304;2022-11-15T09:33:49;57.80;;;35.80;;
40162;SDS011;25881;47.462;19.304;2022-11-15T09:36:14;59.53;;;36.93;;
40162;SDS011;25881;47.462;19.304;2022-11-15T09:38:41;77.07;;;42.70;;
40162;SDS011;25881;47.462;19.304;2022-11-15T09:46:15;62.45;;;38.92;;
40162;SDS011;25881;47.462;19.304;2022-11-15T09:51:40;62.88;;;38.83;;
40162;SDS011;25881;47.462;19.304;2022-11-15T09:56:37;64.25;;;39.15;;
40162;SDS011;25881;47.462;19.304;2022-11-15T10:04:03;54.00;;;35.03;;
40162;SDS011;25881;47.462;19.304;2022-11-15T10:06:28;52.43;;;34.43;;
40162;SDS011;25881;47.462;19.304;2022-11-15T10:11:26;54.35;;;35.25;;
40162;SDS011;25881;47.462;19.304;2022-11-15T10:13:53;60.95;;;37.25;;
40162;SDS011;25881;47.462;19.304;2022-11-15T10:19:07;59.65;;;36.92;;
40162;SDS011;25881;47.462;19.304;2022-11-15T10:21:56;63.28;;;40.10;;
40162;SDS011;25881;47.462;19.304;2022-11-15T10:24:27;55.83;;;34.30;;
40162;SDS011;25881;47.462;19.304;2022-11-15T10:26:56;59.15;;;36.60;;
40162;SDS011;25881;47.462;19.304;2022-11-15T10:29:22;58.60;;;35.35;;
40162;SDS011;25881;47.462;19.304;2022-11-15T10:31:47;57.90;;;35.85;;
40162;SDS011;25881;47.462;19.304;2022-11-15T10:34:14;57.10;;;35.42;;
40162;SDS011;25881;47.462;19.304;2022-11-15T10:36:47;57.30;;;36.63;;
40162;SDS011;25881;47.462;19.304;2022-11-15T10:39:18;51.65;;;33.40;;
40162;SDS011;25881;47.462;19.304;2022-11-15T10:41:43;58.97;;;35.67;;
40162;SDS011;25881;47.462;19.304;2022-11-15T10:44:25;56.10;;;35.00;;
40162;SDS011;25881;47.462;19.304;2022-11-15T10:54:33;62.58;;;36.55;;
40162;SDS011;25881;47.462;19.304;2022-11-15T10:56:59;60.25;;;37.60;;
40162;SDS011;25881;47.462;19.304;2022-11-15T10:59:32;56.38;;;35.33;;
40162;SDS011;25881;47.462;19.304;2022-11-15T11:02:00;60.33;;;36.53;;
40162;SDS011;25881;47.462;19.304;2022-11-15T11:04:25;60.33;;;36.30;;
40162;SDS011;25881;47.462;19.304;2022-11-15T11:06:57;58.17;;;35.23;;
40162;SDS011;25881;47.462;19.304;2022-11-15T11:09:33;59.38;;;36.00;;
40162;SDS011;25881;47.462;19.304;2022-11-15T11:11:59;60.45;;;37.65;;
40162;SDS011;25881;47.462;19.304;2022-11-15T11:14:26;57.65;;;34.83;;
40162;SDS011;25881;47.462;19.304;2022-11-15T11:20:16;59.53;;;35.83;;
40162;SDS011;25881;47.462;19.304;2022-11-15T11:27:22;75.37;;;42.70;;
40162;SDS011;25881;47.462;19.304;2022-11-15T11:32:23;65.70;;;38.72;;
40162;SDS011;25881;47.462;19.304;2022-11-15T11:40:35;59.47;;;36.13;;
40162;SDS011;25881;47.462;19.304;2022-11-15T11:48:18;60.08;;;36.20;;
40162;SDS011;25881;47.462;19.304;2022-11-15T11:50:44;54.65;;;36.58;;
40162;SDS011;25881;47.462;19.304;2022-11-15T12:00:41;69.00;;;41.20;;
40162;SDS011;25881;47.462;19.304;2022-11-15T12:03:11;62.92;;;40.55;;
40162;SDS011;25881;47.462;19.304;2022-11-15T12:05:40;71.32;;;45.33;;
40162;SDS011;25881;47.462;19.304;2022-11-15T12:11:13;60.97;;;38.30;;
40162;SDS011;25881;47.462;19.304;2022-11-15T12:13:36;65.00;;;41.17;;
40162;SDS011;25881;47.462;19.304;2022-11-15T12:18:33;66.35;;;40.05;;
40162;SDS011;25881;47.462;19.304;2022-11-15T12:21:03;64.95;;;40.75;;
40162;SDS011;25881;47.462;19.304;2022-11-15T12:23:31;72.50;;;42.95;;
40162;SDS011;25881;47.462;19.304;2022-11-15T12:26:01;69.68;;;40.88;;
40162;SDS011;25881;47.462;19.304;2022-11-15T12:33:41;70.88;;;41.88;;
40162;SDS011;25881;47.462;19.304;2022-11-15T12:36:11;67.85;;;41.70;;
40162;SDS011;25881;47.462;19.304;2022-11-15T12:41:19;68.63;;;42.30;;
40162;SDS011;25881;47.462;19.304;2022-11-15T12:43:45;73.90;;;44.80;;
40162;SDS011;25881;47.462;19.304;2022-11-15T12:48:55;74.85;;;45.83;;
40162;SDS011;25881;47.462;19.304;2022-11-15T12:51:22;83.22;;;47.03;;
40162;SDS011;25881;47.462;19.304;2022-11-15T12:53:47;77.10;;;44.78;;
40162;SDS011;25881;47.462;19.304;2022-11-15T13:06:42;72.97;;;43.42;;
40162;SDS011;25881;47.462;19.304;2022-11-15T13:12:03;78.97;;;42.75;;
40162;SDS011;25881;47.462;19.304;2022-11-15T13:14:38;80.47;;;44.50;;
40162;SDS011;25881;47.462;19.304;2022-11-15T13:19:44;82.88;;;47.35;;
40162;SDS011;25881;47.462;19.304;2022-11-15T13:22:10;79.95;;;44.70;;
40162;SDS011;25881;47.462;19.304;2022-11-15T13:24:55;74.80;;;45.72;;
40162;SDS011;25881;47.462;19.304;2022-11-15T13:27:20;79.13;;;45.08;;
40162;SDS011;25881;47.462;19.304;2022-11-15T13:29:45;75.32;;;45.30;;
40162;SDS011;25881;47.462;19.304;2022-11-15T13:32:11;77.78;;;47.30;;
40162;SDS011;25881;47.462;19.304;2022-11-15T13:34:38;76.82;;;45.58;;
40162;SDS011;25881;47.462;19.304;2022-11-15T13:37:03;68.95;;;41.67;;
40162;SDS011;25881;47.462;19.304;2022-11-15T13:39:30;66.95;;;40.47;;
40162;SDS011;25881;47.462;19.304;2022-11-15T13:41:56;64.80;;;39.78;;
40162;SDS011;25881;47.462;19.304;2022-11-15T13:44:22;59.53;;;37.17;;
40162;SDS011;25881;47.462;19.304;2022-11-15T13:46:48;56.03;;;36.30;;
40162;SDS011;25881;47.462;19.304;2022-11-15T13:49:13;60.67;;;38.30;;
40162;SDS011;25881;47.462;19.304;2022-11-15T13:51:46;58.40;;;35.22;;
40162;SDS011;25881;47.462;19.304;2022-11-15T13:56:37;55.23;;;34.63;;
40162;SDS011;25881;47.462;19.304;2022-11-15T13:59:16;57.67;;;35.85;;
40162;SDS011;25881;47.462;19.304;2022-11-15T14:01:43;50.00;;;33.20;;
40162;SDS011;25881;47.462;19.304;2022-11-15T14:04:12;52.13;;;32.35;;
40162;SDS011;25881;47.462;19.304;2022-11-15T14:06:43;50.97;;;33.42;;
40162;SDS011;25881;47.462;19.304;2022-11-15T14:11:34;56.83;;;34.50;;
40162;SDS011;25881;47.462;19.304;2022-11-15T14:16:32;45.30;;;30.33;;
40162;SDS011;25881;47.462;19.304;2022-11-15T14:18:57;49.03;;;31.90;;
40162;SDS011;25881;47.462;19.304;2022-11-15T14:21:22;53.27;;;32.40;;
40162;SDS011;25881;47.462;19.304;2022-11-15T14:23:47;52.27;;;34.67;;
40162;SDS011;25881;47.462;19.304;2022-11-15T14:28:52;52.13;;;33.65;;
40162;SDS011;25881;47.462;19.304;2022-11-15T14:31:17;59.65;;;35.55;;
40162;SDS011;25881;47.462;19.304;2022-11-15T14:33:43;57.78;;;36.35;;
40162;SDS011;25881;47.462;19.304;2022-11-15T14:36:15;58.70;;;36.20;;
40162;SDS011;25881;47.462;19.304;2022-11-15T14:38:41;49.53;;;31.92;;
40162;SDS011;25881;47.462;19.304;2022-11-15T14:44:05;53.57;;;33.67;;
40162;SDS011;25881;47.462;19.304;2022-11-15T14:46:30;57.00;;;34.85;;
40162;SDS011;25881;47.462;19.304;2022-11-15T14:48:56;55.67;;;35.97;;
40162;SDS011;25881;47.462;19.304;2022-11-15T14:51:21;52.20;;;33.90;;
40162;SDS011;25881;47.462;19.304;2022-11-15T14:53:46;55.65;;;35.03;;
40162;SDS011;25881;47.462;19.304;2022-11-15T14:56:12;57.30;;;35.90;;
40162;SDS011;25881;47.462;19.304;2022-11-15T14:58:37;57.92;;;36.17;;
40162;SDS011;25881;47.462;19.304;2022-11-15T15:01:10;56.93;;;34.80;;
40162;SDS011;25881;47.462;19.304;2022-11-15T15:03:37;59.33;;;36.40;;
40162;SDS011;25881;47.462;19.304;2022-11-15T15:06:02;51.00;;;31.37;;
40162;SDS011;25881;47.462;19.304;2022-11-15T15:08:27;51.50;;;31.77;;
40162;SDS011;25881;47.462;19.304;2022-11-15T15:10:52;51.63;;;31.53;;
40162;SDS011;25881;47.462;19.304;2022-11-15T15:13:18;53.73;;;35.27;;
40162;SDS011;25881;47.462;19.304;2022-11-15T15:15:44;53.20;;;32.33;;
40162;SDS011;25881;47.462;19.304;2022-11-15T15:18:10;55.38;;;33.15;;
40162;SDS011;25881;47.462;19.304;2022-11-15T15:20:36;59.75;;;34.10;;
40162;SDS011;25881;47.462;19.304;2022-11-15T15:23:03;54.22;;;34.33;;
40162;SDS011;25881;47.462;19.304;2022-11-15T15:25:29;58.97;;;34.93;;
40162;SDS011;25881;47.462;19.304;2022-11-15T15:27:55;59.90;;;36.63;;
40162;SDS011;25881;47.462;19.304;2022-11-15T15:30:21;57.80;;;34.73;;
40162;SDS011;25881;47.462;19.304;2022-11-15T15:32:46;59.35;;;36.03;;
40162;SDS011;25881;47.462;19.304;2022-11-15T15:35:15;75.20;;;42.97;;
40162;SDS011;25881;47.462;19.304;2022-11-15T15:37:41;65.43;;;40.72;;
40162;SDS011;25881;47.462;19.304;2022-11-15T15:40:10;63.67;;;38.38;;
40162;SDS011;25881;47.462;19.304;2022-11-15T15:42:37;63.65;;;36.80;;
40162;SDS011;25881;47.462;19.304;2022-11-15T15:45:02;78.70;;;41.23;;
40162;SDS011;25881;47.462;19.304;2022-11-15T15:47:28;75.85;;;41.35;;
40162;SDS011;25881;47.462;19.304;2022-11-15T15:49:53;75.07;;;39.43;;
40162;SDS011;25881;47.462;19.304;2022-11-15T15:52:18;78.63;;;42.60;;
40162;SDS011;25881;47.462;19.304;2022-11-15T15:54:44;78.82;;;43.75;;
40162;SDS011;25881;47.462;19.304;2022-11-15T15:57:11;82.27;;;43.87;;
40162;SDS011;25881;47.462;19.304;2022-11-15T15:59:36;91.90;;;45.60;;
40162;SDS011;25881;47.462;19.304;2022-11-15T16:02:02;85.17;;;46.50;;
40162;SDS011;25881;47.462;19.304;2022-11-15T16:04:27;92.10;;;46.88;;
40162;SDS011;25881;47.462;19.304;2022-11-15T16:06:55;107.38;;;49.38;;
40162;SDS011;25881;47.462;19.304;2022-11-15T16:09:22;95.53;;;50.67;;
40162;SDS011;25881;47.462;19.304;2022-11-15T16:12:07;121.95;;;53.88;;
40162;SDS011;25881;47.462;19.304;2022-11-15T16:14:33;115.07;;;53.22;;
40162;SDS011;25881;47.462;19.304;2022-11-15T16:16:58;129.00;;;54.50;;
40162;SDS011;25881;47.462;19.304;2022-11-15T16:19:23;149.40;;;57.03;;